x

North Channel East (45154) Wave Buoy

3:00am - Wed 31st Aug 2016 All times are CDT. -5 hours from GMT.

  • Sig Wave height 2.0ft
  • Peak Period 4s
  • Wind
    9mph, 13mph gusts
  • Sea Temp 70°f
  • Air Temp 64°f
  • Sea Pressure 1015.6mb
  • North Channel East
  • North Channel East

More Historic Weather Station data

Upgrade to MSW Pro to gain access to the past 30 days of data for over 8000 Wavebouys and Weather Stations around the globe.

Join Pro

Comparision Forecast

View Surf forecast
   
Wed 08/31 3:00am 2ft 4s 9 13 mph 1015.6mb 70f 64f
2:00am 2.5ft 4s 13 16 mph 1015.6mb 70f 65f
1:00am 2.5ft 4s 13 16 mph 1015.5mb 70f 65f
12:00am 2.5ft 4s 16 20 mph 1015.5mb 70f 66f
Tue 08/30 11:00pm 2.5ft 4s 18 20 mph 1015.1mb 70f 68f
10:00pm 2ft 4s 18 20 mph 1015.2mb 70f 69f
9:00pm 1.6ft 3s 18 20 mph 1015.2mb 70f 71f
8:00pm 1.6ft 3s 13 18 mph 1015mb 70f 71f
7:00pm 1.3ft 3s 16 18 mph 1014.4mb 71f 72f
6:00pm 0.7ft 2s 13 18 mph 1014.5mb 71f 72f
5:00pm 0.3ft 2s 13
mph
1014.5mb 71f 73f
4:00pm 0.3ft 2s 9 11 mph 1014.7mb 71f 72f
3:00pm 0.3ft 2s 7 9 mph 1015.1mb 71f 71f
2:00pm 0.3ft 2s 9 11 mph 1015.5mb 71f 71f
1:00pm 0.7ft 2s 4 7 mph 1016mb 70f 71f
12:00pm 0.7ft 2s 7 9 mph 1016.5mb 70f 70f
11:00am 0.7ft 2s 9
mph
1017.3mb 70f 70f
10:00am 0.7ft 2s 9
mph
1017.6mb 70f 70f
9:00am 0.7ft 2s 9
mph
1017.6mb 70f 70f
8:00am 0.7ft 2s 9 11 mph 1017.8mb 70f 69f
7:00am 0.7ft 2s 11 13 mph 1018mb 70f 69f
6:00am 0.7ft 2s 11 13 mph 1018mb 70f 69f
5:00am 0.7ft 2s 9 11 mph 1018.5mb 70f 69f
4:00am 1ft 2s 9 11 mph 1019mb 70f 69f
3:00am 1ft 2s 11
mph
1019.4mb 69f 69f
2:00am 1.3ft 2s 13 16 mph 1019.7mb 70f 69f
1:00am 1ft 2s 13 18 mph 1019.7mb 70f 69f
12:00am 0.7ft 2s 11 13 mph 1020.3mb 70f 68f
Mon 08/29 11:00pm 0.7ft 2s 9 11 mph 1020.7mb 70f 68f
10:00pm 0.7ft 2s 9 13 mph 1021mb 70f 68f
9:00pm 0.7ft 2s 9 11 mph 1021.8mb 70f 68f
8:00pm 0.3ft 2s 9 11 mph 1022.1mb 70f 68f
7:00pm 0.3ft 2s 7 9 mph 1022.4mb 70f 69f
6:00pm 0.3ft 2s 7 9 mph 1022.7mb 71f 70f
5:00pm 0.3ft 2s 4 9 mph 1022.9mb 71f 70f
4:00pm 0.3ft 2s 7 9 mph 1023.5mb 71f 71f
3:00pm  -  2s 2 4 mph 1024.1mb 71f 71f
2:00pm 0.3ft 2s 2
mph
1024.8mb 71f 71f
1:00pm 0.3ft 2s 2 4 mph 1025.5mb 70f 69f
12:00pm 0.3ft 2s 4 7 mph 1026mb 70f 68f
11:00am 0.3ft 2s 7
mph
1026.4mb 69f 67f
10:00am 0.7ft 2s 7 9 mph 1026.7mb 69f 66f
9:00am 0.7ft 2s 11 13 mph 1026.3mb 69f 65f
8:00am 0.7ft 2s 11 13 mph 1026.3mb 69f 65f
7:00am 0.7ft 2s 9 11 mph 1026.1mb 69f 65f
6:00am 0.7ft 2s 7 9 mph 1025.6mb 69f 64f
5:00am 1ft 2s 7 9 mph 1025.4mb 69f 64f
4:00am 1ft 4s 9 11 mph 1025mb 69f 64f
3:00am 1.3ft 4s 9 11 mph 1024.7mb 69f 64f
2:00am 1.3ft 4s 9 11 mph 1024.3mb 69f 65f
1:00am 1.3ft 4s 9 11 mph 1023.9mb 69f 66f
12:00am 1.6ft 4s 11 13 mph 1023.8mb 69f 66f
Sun 08/28 11:00pm 1.6ft 4s 11 13 mph 1023.4mb 69f 67f
10:00pm 2ft 4s 13 16 mph 1023.1mb 69f 68f
9:00pm 2ft 4s 16 20 mph 1022.7mb 69f 69f
8:00pm 2.5ft 4s 16 18 mph 1022mb 69f 70f
7:00pm 2.5ft 4s 18 20 mph 1021.2mb 69f 71f
6:00pm 2ft 4s 18 22 mph 1020.8mb 69f 71f
5:00pm 2.5ft 4s 18 20 mph 1020.8mb 69f 71f
4:00pm 2.5ft 4s 18 22 mph 1020.2mb 69f 71f
3:00pm 2.5ft 4s 16 20 mph 1020.4mb 69f 70f
2:00pm 2.5ft 4s 18 22 mph 1020.8mb 69f 69f
1:00pm 2.5ft 4s 20 22 mph 1020.8mb 69f 69f
12:00pm 2.5ft 4s 18 22 mph 1020.7mb 69f 68f
11:00am 2.5ft 4s 20 22 mph 1020.5mb 69f 67f
10:00am 3ft 4s 18 22 mph 1020.1mb 69f 67f
9:00am 3ft 4s 20 25 mph 1019.6mb 69f 67f
8:00am 2.5ft 4s 18 22 mph 1018.9mb 69f 68f
7:00am 2ft 3s 20 22 mph 1018.3mb 69f 69f
6:00am 1.6ft 3s 18 25 mph 1017.8mb 69f 69f
5:00am 1ft 2s 18 20 mph 1017.1mb 69f 70f
4:00am 0.7ft 2s 13 16 mph 1016.9mb 69f 70f
3:00am 0.7ft 3s 9 11 mph 1016.8mb 69f 70f
2:00am 1ft 3s 9 11 mph 1017mb 69f 69f
1:00am 1.3ft 3s 9 11 mph 1017.2mb 69f 69f
12:00am 1.3ft 3s 11 13 mph 1018mb 69f 68f
Sat 08/27 11:00pm 1.6ft 3s 13 16 mph 1018.4mb 69f 67f
10:00pm 1.6ft 3s 18 20 mph 1018.6mb 69f 68f
9:00pm 2ft 3s 16 20 mph 1019.1mb 69f 68f
8:00pm 1.6ft 3s 18 20 mph 1019.3mb 69f 67f
7:00pm 1.6ft 3s 18 20 mph 1019.7mb 69f 67f
6:00pm 1ft 2s 16 20 mph 1019.9mb 69f 68f
5:00pm 0.7ft 2s 13 16 mph 1020mb 69f 68f
4:00pm 0.7ft 2s 11 13 mph 1020.5mb 69f 67f
3:00pm 0.7ft 2s 9 11 mph 1021mb 69f 66f
2:00pm 0.3ft 2s 11 13 mph 1021.2mb 69f 69f
1:00pm 0.3ft 2s 4 7 mph 1021.3mb 69f 70f
12:00pm 0.3ft 2s 9
mph
1021.5mb 69f 69f
11:00am 0.3ft 2s 7 9 mph 1022.2mb 69f 67f
10:00am 0.3ft 2s 4 7 mph 1022.7mb 69f 66f